createdAt,value
2022-08-19T00:04:21.212Z,18.4
2022-08-19T00:09:21.166Z,18.5
2022-08-19T00:14:21.167Z,18.5
2022-08-19T00:19:21.174Z,18.4
2022-08-19T00:24:21.182Z,18.4
2022-08-19T00:29:21.167Z,18.3
2022-08-19T00:34:21.181Z,18.2
2022-08-19T00:39:21.187Z,18.3
2022-08-19T00:44:21.180Z,18.2
2022-08-19T00:49:21.184Z,18.2
2022-08-19T00:54:28.285Z,18.2
2022-08-19T01:00:02.012Z,18.2
2022-08-19T01:04:21.192Z,18.0
2022-08-19T01:09:21.202Z,18.1
2022-08-19T01:14:21.194Z,18.1
2022-08-19T01:19:21.195Z,18.0
2022-08-19T01:24:21.207Z,18.1
2022-08-19T01:29:21.204Z,18.1
2022-08-19T01:34:21.208Z,17.9
2022-08-19T01:39:21.214Z,17.7
2022-08-19T01:44:21.201Z,17.6
2022-08-19T01:49:21.213Z,17.4
2022-08-19T01:54:23.090Z,17.7
2022-08-19T01:59:21.215Z,17.2
2022-08-19T02:04:21.214Z,17.2
2022-08-19T02:09:21.200Z,17.2
2022-08-19T02:14:21.218Z,16.9
2022-08-19T02:19:21.218Z,16.9
2022-08-19T02:24:21.221Z,17.0
2022-08-19T02:29:21.211Z,16.9
2022-08-19T02:34:21.233Z,17.2
2022-08-19T02:39:21.207Z,17.4
2022-08-19T02:44:31.198Z,17.2
2022-08-19T02:49:21.230Z,16.8
2022-08-19T02:54:21.235Z,17.3
2022-08-19T02:59:23.122Z,17.0
2022-08-19T03:04:21.227Z,17.1
2022-08-19T03:09:21.242Z,17.2
2022-08-19T03:14:21.268Z,17.4
2022-08-19T03:19:21.237Z,17.2
2022-08-19T03:24:21.248Z,17.3
2022-08-19T03:29:30.622Z,17.0
2022-08-19T03:34:21.288Z,17.0
2022-08-19T03:39:21.249Z,16.6
2022-08-19T03:44:21.262Z,16.8
2022-08-19T03:49:21.251Z,17.2
2022-08-19T03:54:21.272Z,16.9
2022-08-19T03:59:21.259Z,16.8
2022-08-19T04:04:21.272Z,16.0
2022-08-19T04:09:21.271Z,16.0
2022-08-19T04:14:21.273Z,16.3
2022-08-19T04:19:21.280Z,16.2
2022-08-19T04:24:21.272Z,16.3
2022-08-19T04:29:21.274Z,16.4
2022-08-19T04:34:21.287Z,16.1
2022-08-19T04:39:21.285Z,16.2
2022-08-19T04:44:21.288Z,16.3
2022-08-19T04:49:21.246Z,16.2
2022-08-19T04:54:37.730Z,16.0
2022-08-19T04:59:21.276Z,16.0
2022-08-19T05:04:21.468Z,16.1
2022-08-19T05:09:21.288Z,15.9
2022-08-19T05:14:21.290Z,15.9
2022-08-19T05:19:21.294Z,15.9
2022-08-19T05:24:21.301Z,16.2
2022-08-19T05:29:21.320Z,15.8
2022-08-19T05:34:21.295Z,16.0
2022-08-19T05:39:21.303Z,15.8
2022-08-19T05:44:21.309Z,15.9
2022-08-19T05:49:21.308Z,15.7
2022-08-19T05:54:21.310Z,15.8
2022-08-19T05:59:21.323Z,16.2
2022-08-19T06:04:21.314Z,16.5
2022-08-19T06:09:21.310Z,17.5
2022-08-19T06:14:21.323Z,18.4
2022-08-19T06:19:21.321Z,19.4
2022-08-19T06:24:21.360Z,19.9
2022-08-19T06:29:24.070Z,20.1
2022-08-19T06:34:21.335Z,20.0
2022-08-19T06:39:21.334Z,20.0
2022-08-19T06:44:21.371Z,19.8
2022-08-19T06:49:21.321Z,19.0
2022-08-19T06:54:21.344Z,21.3
2022-08-19T06:59:21.337Z,21.2
2022-08-19T07:04:21.356Z,21.2
2022-08-19T07:09:21.377Z,20.0
2022-08-19T07:14:21.350Z,20.2
2022-08-19T07:19:21.347Z,21.0
2022-08-19T07:24:21.348Z,21.8
2022-08-19T07:29:21.355Z,21.4
2022-08-19T07:34:21.358Z,21.3
2022-08-19T07:39:21.344Z,20.7
2022-08-19T07:44:21.358Z,22.7
2022-08-19T07:49:21.362Z,23.0
2022-08-19T07:54:21.364Z,21.7
2022-08-19T07:59:21.371Z,21.9
2022-08-19T08:04:21.366Z,22.2
2022-08-19T08:14:29.657Z,23.0
2022-08-19T08:19:25.582Z,22.6
2022-08-19T08:24:21.382Z,22.7
2022-08-19T08:29:21.384Z,22.5
2022-08-19T08:34:21.372Z,23.1
2022-08-19T08:39:21.390Z,23.0
2022-08-19T08:44:21.930Z,23.5
2022-08-19T08:49:21.424Z,23.4
2022-08-19T08:54:21.396Z,22.3
2022-08-19T08:59:21.390Z,22.0
2022-08-19T09:04:21.404Z,23.9
2022-08-19T09:09:21.392Z,23.5
2022-08-19T09:14:47.384Z,22.0
2022-08-19T09:19:22.297Z,23.4
2022-08-19T09:24:21.410Z,21.8
2022-08-19T09:29:22.702Z,23.2
2022-08-19T09:34:22.166Z,23.3
2022-08-19T09:39:21.435Z,22.9
2022-08-19T09:44:21.851Z,23.7
2022-08-19T09:49:21.409Z,23.0
2022-08-19T09:54:23.678Z,23.5
2022-08-19T09:59:21.427Z,23.1
2022-08-19T10:04:22.143Z,22.0
2022-08-19T10:09:26.124Z,22.4
2022-08-19T10:14:21.442Z,23.5
2022-08-19T10:19:26.069Z,22.3
2022-08-19T10:24:21.511Z,22.4
2022-08-19T10:29:31.872Z,23.5
2022-08-19T10:34:27.624Z,22.7
2022-08-19T10:39:22.837Z,20.8
2022-08-19T10:44:21.420Z,22.9
2022-08-19T10:49:21.444Z,22.4
2022-08-19T10:54:33.173Z,22.5
2022-08-19T10:59:21.448Z,22.1
2022-08-19T11:04:21.434Z,23.1
2022-08-19T11:09:21.459Z,23.9
2022-08-19T11:14:21.440Z,23.2
2022-08-19T11:19:21.457Z,22.9
2022-08-19T11:24:21.463Z,23.5
2022-08-19T11:29:21.448Z,22.3
2022-08-19T11:34:21.470Z,23.2
2022-08-19T11:39:21.502Z,24.0
2022-08-19T11:44:21.482Z,23.4
2022-08-19T11:49:21.456Z,22.8
2022-08-19T11:54:21.475Z,23.0
2022-08-19T11:59:21.460Z,23.5
2022-08-19T12:04:21.576Z,23.5
2022-08-19T12:09:21.480Z,23.5
2022-08-19T12:14:21.507Z,23.7
2022-08-19T12:19:22.183Z,23.5
2022-08-19T12:24:21.494Z,23.0
2022-08-19T12:29:23.654Z,23.3
2022-08-19T12:34:21.498Z,23.5
2022-08-19T12:39:21.473Z,23.1
2022-08-19T12:44:21.483Z,23.5
2022-08-19T12:49:52.370Z,23.9
2022-08-19T12:54:21.480Z,23.4
2022-08-19T12:59:21.492Z,23.2
2022-08-19T13:04:21.503Z,23.2
2022-08-19T13:09:21.491Z,22.4
2022-08-19T13:14:21.503Z,22.0
2022-08-19T13:19:21.508Z,22.1
2022-08-19T13:24:21.503Z,22.0
2022-08-19T13:29:21.492Z,22.5
2022-08-19T13:34:21.517Z,23.0
2022-08-19T13:39:21.501Z,23.4
2022-08-19T13:44:21.513Z,23.6
2022-08-19T13:49:21.513Z,22.9
2022-08-19T13:54:21.513Z,22.9
2022-08-19T13:59:21.524Z,21.8
2022-08-19T14:04:21.510Z,21.4
2022-08-19T14:09:21.543Z,21.5
2022-08-19T14:14:21.513Z,22.3
2022-08-19T14:19:21.531Z,22.9
2022-08-19T14:24:21.501Z,23.4
2022-08-19T14:29:21.531Z,23.2
2022-08-19T14:34:21.533Z,23.3
2022-08-19T14:39:21.526Z,23.2
2022-08-19T14:44:21.546Z,22.4
2022-08-19T14:49:21.559Z,22.2
2022-08-19T14:54:21.549Z,22.7
2022-08-19T14:59:21.542Z,22.0
2022-08-19T15:04:21.557Z,22.4
2022-08-19T15:09:21.547Z,22.9
2022-08-19T15:14:21.566Z,22.7
2022-08-19T15:19:21.573Z,22.4
2022-08-19T15:24:21.565Z,21.7
2022-08-19T15:29:21.553Z,22.2
2022-08-19T15:34:21.572Z,22.7
2022-08-19T15:39:21.558Z,22.6
2022-08-19T15:44:21.578Z,21.6
2022-08-19T15:49:21.566Z,21.1
2022-08-19T15:54:21.584Z,20.9
2022-08-19T15:59:21.577Z,21.2
2022-08-19T16:04:21.571Z,21.2
2022-08-19T16:09:26.629Z,20.8
2022-08-19T16:14:21.585Z,21.4
2022-08-19T16:19:21.581Z,21.9
2022-08-19T16:24:21.566Z,21.2
2022-08-19T16:29:33.352Z,21.3
2022-08-19T16:34:21.597Z,21.4
2022-08-19T16:39:21.589Z,21.0
2022-08-19T16:44:21.587Z,20.9
2022-08-19T16:49:52.233Z,20.6
2022-08-19T16:54:21.589Z,20.9
2022-08-19T16:59:21.592Z,20.8
2022-08-19T17:04:21.599Z,20.2
2022-08-19T17:09:25.805Z,20.4
2022-08-19T17:14:21.604Z,20.4
2022-08-19T17:19:21.599Z,20.3
2022-08-19T17:24:21.599Z,20.2
2022-08-19T17:29:21.629Z,20.4
2022-08-19T17:34:21.603Z,20.6
2022-08-19T17:39:21.621Z,20.7
2022-08-19T17:44:21.619Z,20.4
2022-08-19T17:49:21.608Z,20.0
2022-08-19T17:54:21.598Z,19.7
2022-08-19T17:59:21.614Z,19.7
2022-08-19T18:04:21.609Z,19.6
2022-08-19T18:09:23.943Z,19.7
2022-08-19T18:14:21.628Z,19.5
2022-08-19T18:19:21.615Z,19.2
2022-08-19T18:24:21.627Z,19.2
2022-08-19T18:29:21.620Z,19.0
2022-08-19T18:34:21.626Z,19.0
2022-08-19T18:39:21.618Z,18.7
2022-08-19T18:44:21.652Z,18.7
2022-08-19T18:49:21.625Z,18.7
2022-08-19T18:54:21.652Z,18.8
2022-08-19T18:59:21.635Z,18.9
2022-08-19T19:04:21.633Z,18.8
2022-08-19T19:09:21.633Z,18.8
2022-08-19T19:14:45.722Z,18.8
2022-08-19T19:19:21.650Z,18.8
2022-08-19T19:24:21.661Z,18.7
2022-08-19T19:29:21.644Z,18.5
2022-08-19T19:34:29.783Z,18.3
2022-08-19T19:39:46.346Z,18.2
2022-08-19T19:44:29.250Z,18.2
2022-08-19T19:49:21.636Z,18.4
2022-08-19T19:54:23.588Z,18.3
2022-08-19T19:59:21.625Z,18.2
2022-08-19T20:04:21.649Z,18.1
2022-08-19T20:09:21.665Z,18.0
2022-08-19T20:14:21.654Z,17.9
2022-08-19T20:19:21.644Z,18.0
2022-08-19T20:24:21.639Z,17.9
2022-08-19T20:29:38.127Z,17.9
2022-08-19T20:34:21.665Z,17.7
2022-08-19T20:39:21.645Z,17.8
2022-08-19T20:44:21.668Z,17.7
2022-08-19T20:49:21.658Z,17.6
2022-08-19T20:54:21.706Z,17.5
2022-08-19T20:59:21.655Z,17.5
2022-08-19T21:04:21.683Z,17.5
2022-08-19T21:09:21.667Z,17.4
2022-08-19T21:14:21.676Z,17.3
2022-08-19T21:19:24.041Z,17.2
2022-08-19T21:24:21.672Z,17.2
2022-08-19T21:29:21.655Z,17.2
2022-08-19T21:34:21.679Z,17.2
2022-08-19T21:39:21.673Z,17.1
2022-08-19T21:44:21.680Z,17.0
2022-08-19T21:49:21.653Z,16.9
2022-08-19T21:54:21.671Z,16.9
2022-08-19T21:59:21.659Z,16.9
2022-08-19T22:04:21.784Z,16.9
2022-08-19T22:09:21.687Z,16.8
2022-08-19T22:14:21.671Z,16.7
2022-08-19T22:19:21.670Z,16.7
2022-08-19T22:24:21.685Z,16.8
2022-08-19T22:29:31.851Z,16.7
2022-08-19T22:34:21.680Z,16.6
2022-08-19T22:39:21.677Z,16.4
2022-08-19T22:44:21.700Z,16.6
2022-08-19T22:49:21.688Z,16.2
2022-08-19T22:54:21.676Z,16.2
2022-08-19T22:59:21.675Z,16.3
2022-08-19T23:04:21.676Z,16.4
2022-08-19T23:09:23.458Z,16.3
2022-08-19T23:14:21.691Z,16.3
2022-08-19T23:19:21.677Z,16.3
2022-08-19T23:24:21.696Z,16.4
2022-08-19T23:29:21.673Z,16.3
2022-08-19T23:34:21.695Z,16.1
2022-08-19T23:39:21.693Z,16.2
2022-08-19T23:44:21.688Z,16.2
2022-08-19T23:49:21.678Z,16.2
2022-08-19T23:54:21.725Z,16.2
2022-08-19T23:59:21.678Z,16.1
